sensor_id;sensor_type;location;lat;lon;timestamp;P1;durP1;ratioP1;P2;durP2;ratioP2
68985;SDS011;56035;37.534;-122.308;2022-10-26T00:00:39;12.43;;;3.10;;
68985;SDS011;56035;37.534;-122.308;2022-10-26T00:03:05;15.50;;;3.58;;
68985;SDS011;56035;37.534;-122.308;2022-10-26T00:05:31;14.82;;;3.22;;
68985;SDS011;56035;37.534;-122.308;2022-10-26T00:07:59;16.13;;;3.63;;
68985;SDS011;56035;37.534;-122.308;2022-10-26T00:10:26;15.73;;;4.07;;
68985;SDS011;56035;37.534;-122.308;2022-10-26T00:12:52;9.63;;;2.67;;
68985;SDS011;56035;37.534;-122.308;2022-10-26T00:15:18;16.70;;;3.08;;
68985;SDS011;56035;37.534;-122.308;2022-10-26T00:17:45;13.00;;;3.37;;
68985;SDS011;56035;37.534;-122.308;2022-10-26T00:20:13;13.05;;;2.85;;
68985;SDS011;56035;37.534;-122.308;2022-10-26T00:22:39;13.05;;;2.83;;
68985;SDS011;56035;37.534;-122.308;2022-10-26T00:25:06;13.15;;;2.88;;
68985;SDS011;56035;37.534;-122.308;2022-10-26T00:27:32;10.50;;;2.60;;
68985;SDS011;56035;37.534;-122.308;2022-10-26T00:30:02;12.77;;;3.08;;
68985;SDS011;56035;37.534;-122.308;2022-10-26T00:32:30;14.00;;;3.43;;
68985;SDS011;56035;37.534;-122.308;2022-10-26T00:34:57;12.75;;;2.60;;
68985;SDS011;56035;37.534;-122.308;2022-10-26T00:37:23;9.38;;;2.78;;
68985;SDS011;56035;37.534;-122.308;2022-10-26T00:39:49;12.13;;;2.38;;
68985;SDS011;56035;37.534;-122.308;2022-10-26T00:42:19;17.60;;;3.17;;
68985;SDS011;56035;37.534;-122.308;2022-10-26T00:47:24;19.58;;;3.65;;
68985;SDS011;56035;37.534;-122.308;2022-10-26T00:50:00;16.33;;;2.80;;
68985;SDS011;56035;37.534;-122.308;2022-10-26T00:52:30;14.20;;;3.57;;
68985;SDS011;56035;37.534;-122.308;2022-10-26T00:54:57;12.80;;;3.22;;
68985;SDS011;56035;37.534;-122.308;2022-10-26T00:57:24;11.38;;;2.70;;
68985;SDS011;56035;37.534;-122.308;2022-10-26T00:59:50;22.60;;;4.00;;
68985;SDS011;56035;37.534;-122.308;2022-10-26T01:02:18;13.83;;;3.73;;
68985;SDS011;56035;37.534;-122.308;2022-10-26T01:04:45;17.75;;;3.78;;
68985;SDS011;56035;37.534;-122.308;2022-10-26T01:07:11;23.93;;;3.67;;
68985;SDS011;56035;37.534;-122.308;2022-10-26T01:09:39;17.10;;;3.40;;
68985;SDS011;56035;37.534;-122.308;2022-10-26T01:12:06;14.60;;;3.57;;
68985;SDS011;56035;37.534;-122.308;2022-10-26T01:14:32;18.38;;;3.40;;
68985;SDS011;56035;37.534;-122.308;2022-10-26T01:24:45;15.07;;;3.35;;
68985;SDS011;56035;37.534;-122.308;2022-10-26T01:27:29;18.53;;;3.57;;
68985;SDS011;56035;37.534;-122.308;2022-10-26T01:35:53;16.73;;;5.03;;
68985;SDS011;56035;37.534;-122.308;2022-10-26T01:41:03;14.30;;;3.07;;
68985;SDS011;56035;37.534;-122.308;2022-10-26T01:43:54;14.53;;;3.30;;
68985;SDS011;56035;37.534;-122.308;2022-10-26T01:46:28;16.83;;;3.00;;
68985;SDS011;56035;37.534;-122.308;2022-10-26T01:49:00;14.90;;;3.07;;
68985;SDS011;56035;37.534;-122.308;2022-10-26T01:51:30;17.27;;;2.80;;
68985;SDS011;56035;37.534;-122.308;2022-10-26T01:53:57;13.43;;;2.90;;
68985;SDS011;56035;37.534;-122.308;2022-10-26T01:56:27;15.68;;;3.95;;
68985;SDS011;56035;37.534;-122.308;2022-10-26T01:59:07;12.77;;;3.00;;
68985;SDS011;56035;37.534;-122.308;2022-10-26T02:07:02;14.15;;;2.72;;
68985;SDS011;56035;37.534;-122.308;2022-10-26T02:10:36;16.87;;;3.63;;
68985;SDS011;56035;37.534;-122.308;2022-10-26T02:18:50;12.90;;;2.90;;
68985;SDS011;56035;37.534;-122.308;2022-10-26T02:21:28;9.67;;;2.50;;
68985;SDS011;56035;37.534;-122.308;2022-10-26T02:24:00;11.30;;;2.33;;
68985;SDS011;56035;37.534;-122.308;2022-10-26T02:26:28;13.80;;;2.50;;
68985;SDS011;56035;37.534;-122.308;2022-10-26T02:28:57;13.80;;;2.70;;
68985;SDS011;56035;37.534;-122.308;2022-10-26T02:31:29;14.43;;;2.43;;
68985;SDS011;56035;37.534;-122.308;2022-10-26T02:33:57;13.50;;;2.50;;
68985;SDS011;56035;37.534;-122.308;2022-10-26T02:36:28;11.57;;;2.43;;
68985;SDS011;56035;37.534;-122.308;2022-10-26T02:38:56;14.27;;;3.13;;
68985;SDS011;56035;37.534;-122.308;2022-10-26T02:41:24;14.00;;;3.13;;
68985;SDS011;56035;37.534;-122.308;2022-10-26T02:43:55;10.40;;;2.80;;
68985;SDS011;56035;37.534;-122.308;2022-10-26T02:46:24;12.80;;;5.33;;
68985;SDS011;56035;37.534;-122.308;2022-10-26T02:48:53;15.47;;;3.93;;
68985;SDS011;56035;37.534;-122.308;2022-10-26T02:53:58;17.23;;;10.17;;
68985;SDS011;56035;37.534;-122.308;2022-10-26T02:56:39;14.33;;;4.67;;
68985;SDS011;56035;37.534;-122.308;2022-10-26T02:59:19;13.03;;;3.70;;
68985;SDS011;56035;37.534;-122.308;2022-10-26T03:01:49;8.37;;;2.17;;
68985;SDS011;56035;37.534;-122.308;2022-10-26T03:04:16;13.27;;;2.40;;
68985;SDS011;56035;37.534;-122.308;2022-10-26T03:06:50;13.55;;;2.38;;
68985;SDS011;56035;37.534;-122.308;2022-10-26T03:09:17;11.60;;;2.27;;
68985;SDS011;56035;37.534;-122.308;2022-10-26T03:11:43;11.90;;;3.10;;
68985;SDS011;56035;37.534;-122.308;2022-10-26T03:14:10;10.88;;;2.15;;
68985;SDS011;56035;37.534;-122.308;2022-10-26T03:16:36;15.32;;;2.95;;
68985;SDS011;56035;37.534;-122.308;2022-10-26T03:19:02;10.65;;;2.30;;
68985;SDS011;56035;37.534;-122.308;2022-10-26T03:21:28;15.43;;;2.42;;
68985;SDS011;56035;37.534;-122.308;2022-10-26T03:23:54;8.03;;;1.90;;
68985;SDS011;56035;37.534;-122.308;2022-10-26T03:26:20;11.60;;;2.15;;
68985;SDS011;56035;37.534;-122.308;2022-10-26T03:28:46;12.95;;;3.13;;
68985;SDS011;56035;37.534;-122.308;2022-10-26T03:31:12;8.70;;;2.20;;
68985;SDS011;56035;37.534;-122.308;2022-10-26T03:33:39;13.43;;;2.85;;
68985;SDS011;56035;37.534;-122.308;2022-10-26T03:36:05;8.83;;;2.40;;
68985;SDS011;56035;37.534;-122.308;2022-10-26T03:38:31;12.05;;;2.10;;
68985;SDS011;56035;37.534;-122.308;2022-10-26T03:40:57;8.32;;;2.05;;
68985;SDS011;56035;37.534;-122.308;2022-10-26T03:43:24;14.20;;;2.35;;
68985;SDS011;56035;37.534;-122.308;2022-10-26T03:45:50;9.65;;;2.08;;
68985;SDS011;56035;37.534;-122.308;2022-10-26T03:48:16;10.75;;;2.38;;
68985;SDS011;56035;37.534;-122.308;2022-10-26T03:50:42;10.98;;;2.38;;
68985;SDS011;56035;37.534;-122.308;2022-10-26T03:53:08;10.25;;;2.35;;
68985;SDS011;56035;37.534;-122.308;2022-10-26T03:55:35;14.52;;;3.20;;
68985;SDS011;56035;37.534;-122.308;2022-10-26T03:58:01;9.90;;;2.83;;
68985;SDS011;56035;37.534;-122.308;2022-10-26T04:00:27;12.82;;;2.80;;
68985;SDS011;56035;37.534;-122.308;2022-10-26T04:02:54;11.25;;;2.30;;
68985;SDS011;56035;37.534;-122.308;2022-10-26T04:05:23;8.30;;;2.30;;
68985;SDS011;56035;37.534;-122.308;2022-10-26T04:07:53;11.33;;;2.23;;
68985;SDS011;56035;37.534;-122.308;2022-10-26T04:10:21;11.73;;;2.50;;
68985;SDS011;56035;37.534;-122.308;2022-10-26T04:12:48;13.77;;;2.43;;
68985;SDS011;56035;37.534;-122.308;2022-10-26T04:15:15;12.80;;;2.33;;
68985;SDS011;56035;37.534;-122.308;2022-10-26T04:17:42;12.68;;;2.83;;
68985;SDS011;56035;37.534;-122.308;2022-10-26T04:20:08;13.40;;;2.58;;
68985;SDS011;56035;37.534;-122.308;2022-10-26T04:22:56;19.37;;;3.00;;
68985;SDS011;56035;37.534;-122.308;2022-10-26T04:25:26;13.57;;;2.93;;
68985;SDS011;56035;37.534;-122.308;2022-10-26T04:27:53;16.05;;;3.05;;
68985;SDS011;56035;37.534;-122.308;2022-10-26T04:30:19;15.98;;;3.42;;
68985;SDS011;56035;37.534;-122.308;2022-10-26T04:32:46;14.93;;;2.80;;
68985;SDS011;56035;37.534;-122.308;2022-10-26T04:35:12;14.45;;;2.88;;
68985;SDS011;56035;37.534;-122.308;2022-10-26T04:37:38;12.15;;;2.60;;
68985;SDS011;56035;37.534;-122.308;2022-10-26T04:40:04;13.30;;;2.87;;
68985;SDS011;56035;37.534;-122.308;2022-10-26T04:42:31;13.18;;;2.40;;
68985;SDS011;56035;37.534;-122.308;2022-10-26T04:45:07;17.35;;;3.05;;
68985;SDS011;56035;37.534;-122.308;2022-10-26T04:47:34;14.07;;;2.85;;
68985;SDS011;56035;37.534;-122.308;2022-10-26T04:50:01;19.48;;;3.33;;
68985;SDS011;56035;37.534;-122.308;2022-10-26T04:52:27;15.82;;;2.85;;
68985;SDS011;56035;37.534;-122.308;2022-10-26T04:54:53;16.95;;;3.05;;
68985;SDS011;56035;37.534;-122.308;2022-10-26T04:57:19;14.27;;;3.67;;
68985;SDS011;56035;37.534;-122.308;2022-10-26T04:59:45;12.32;;;2.47;;
68985;SDS011;56035;37.534;-122.308;2022-10-26T05:02:11;12.82;;;2.92;;
68985;SDS011;56035;37.534;-122.308;2022-10-26T05:04:38;16.65;;;3.67;;
68985;SDS011;56035;37.534;-122.308;2022-10-26T05:07:04;12.60;;;2.83;;
68985;SDS011;56035;37.534;-122.308;2022-10-26T05:09:30;14.40;;;2.93;;
68985;SDS011;56035;37.534;-122.308;2022-10-26T05:11:56;13.27;;;2.40;;
68985;SDS011;56035;37.534;-122.308;2022-10-26T05:14:22;14.53;;;3.10;;
68985;SDS011;56035;37.534;-122.308;2022-10-26T05:16:49;19.30;;;4.18;;
68985;SDS011;56035;37.534;-122.308;2022-10-26T05:19:16;15.57;;;2.73;;
68985;SDS011;56035;37.534;-122.308;2022-10-26T05:21:42;21.73;;;4.07;;
68985;SDS011;56035;37.534;-122.308;2022-10-26T05:24:08;26.05;;;4.68;;
68985;SDS011;56035;37.534;-122.308;2022-10-26T05:26:34;15.80;;;3.08;;
68985;SDS011;56035;37.534;-122.308;2022-10-26T05:29:00;15.73;;;3.30;;
68985;SDS011;56035;37.534;-122.308;2022-10-26T05:31:26;20.67;;;3.83;;
68985;SDS011;56035;37.534;-122.308;2022-10-26T05:33:52;19.57;;;3.17;;
68985;SDS011;56035;37.534;-122.308;2022-10-26T05:36:18;21.10;;;3.50;;
68985;SDS011;56035;37.534;-122.308;2022-10-26T05:38:45;16.15;;;2.92;;
68985;SDS011;56035;37.534;-122.308;2022-10-26T05:41:11;18.67;;;3.40;;
68985;SDS011;56035;37.534;-122.308;2022-10-26T05:43:38;15.77;;;3.22;;
68985;SDS011;56035;37.534;-122.308;2022-10-26T05:46:04;14.05;;;2.47;;
68985;SDS011;56035;37.534;-122.308;2022-10-26T05:48:30;15.65;;;3.15;;
68985;SDS011;56035;37.534;-122.308;2022-10-26T05:50:59;19.30;;;3.37;;
68985;SDS011;56035;37.534;-122.308;2022-10-26T05:53:26;20.50;;;3.67;;
68985;SDS011;56035;37.534;-122.308;2022-10-26T05:55:53;18.27;;;3.58;;
68985;SDS011;56035;37.534;-122.308;2022-10-26T05:58:20;24.47;;;4.20;;
68985;SDS011;56035;37.534;-122.308;2022-10-26T06:03:32;20.23;;;3.60;;
68985;SDS011;56035;37.534;-122.308;2022-10-26T06:06:12;18.87;;;2.93;;
68985;SDS011;56035;37.534;-122.308;2022-10-26T06:08:38;18.98;;;3.45;;
68985;SDS011;56035;37.534;-122.308;2022-10-26T06:11:07;17.73;;;3.63;;
68985;SDS011;56035;37.534;-122.308;2022-10-26T06:13:34;19.40;;;3.80;;
68985;SDS011;56035;37.534;-122.308;2022-10-26T06:24:01;22.90;;;3.70;;
68985;SDS011;56035;37.534;-122.308;2022-10-26T06:26:36;17.87;;;3.00;;
68985;SDS011;56035;37.534;-122.308;2022-10-26T06:32:09;18.17;;;3.57;;
68985;SDS011;56035;37.534;-122.308;2022-10-26T06:37:07;15.93;;;3.43;;
68985;SDS011;56035;37.534;-122.308;2022-10-26T06:39:34;19.47;;;3.60;;
68985;SDS011;56035;37.534;-122.308;2022-10-26T06:42:04;17.40;;;4.10;;
68985;SDS011;56035;37.534;-122.308;2022-10-26T06:44:31;16.57;;;3.60;;
68985;SDS011;56035;37.534;-122.308;2022-10-26T06:47:20;23.45;;;4.28;;
68985;SDS011;56035;37.534;-122.308;2022-10-26T06:52:39;25.27;;;3.90;;
68985;SDS011;56035;37.534;-122.308;2022-10-26T06:55:16;18.80;;;3.73;;
68985;SDS011;56035;37.534;-122.308;2022-10-26T06:57:43;24.70;;;4.05;;
68985;SDS011;56035;37.534;-122.308;2022-10-26T07:02:44;15.47;;;3.20;;
68985;SDS011;56035;37.534;-122.308;2022-10-26T07:05:10;17.65;;;3.35;;
68985;SDS011;56035;37.534;-122.308;2022-10-26T07:07:43;17.27;;;3.03;;
68985;SDS011;56035;37.534;-122.308;2022-10-26T07:10:12;14.33;;;3.00;;
68985;SDS011;56035;37.534;-122.308;2022-10-26T07:12:39;20.23;;;3.77;;
68985;SDS011;56035;37.534;-122.308;2022-10-26T07:15:06;19.02;;;3.55;;
68985;SDS011;56035;37.534;-122.308;2022-10-26T07:20:13;18.30;;;2.93;;
68985;SDS011;56035;37.534;-122.308;2022-10-26T07:22:40;17.60;;;3.37;;
68985;SDS011;56035;37.534;-122.308;2022-10-26T07:25:07;17.73;;;2.72;;
68985;SDS011;56035;37.534;-122.308;2022-10-26T07:27:34;20.40;;;3.73;;
68985;SDS011;56035;37.534;-122.308;2022-10-26T07:30:00;19.77;;;3.05;;
68985;SDS011;56035;37.534;-122.308;2022-10-26T07:32:27;23.15;;;3.53;;
68985;SDS011;56035;37.534;-122.308;2022-10-26T07:34:54;21.23;;;3.30;;
68985;SDS011;56035;37.534;-122.308;2022-10-26T07:37:21;28.05;;;5.30;;
68985;SDS011;56035;37.534;-122.308;2022-10-26T07:39:47;15.87;;;2.67;;
68985;SDS011;56035;37.534;-122.308;2022-10-26T07:42:13;18.67;;;3.27;;
68985;SDS011;56035;37.534;-122.308;2022-10-26T07:47:06;20.10;;;4.00;;
68985;SDS011;56035;37.534;-122.308;2022-10-26T07:49:32;22.10;;;3.90;;
68985;SDS011;56035;37.534;-122.308;2022-10-26T07:51:58;23.13;;;3.47;;
68985;SDS011;56035;37.534;-122.308;2022-10-26T07:54:24;20.50;;;3.70;;
68985;SDS011;56035;37.534;-122.308;2022-10-26T07:56:51;23.45;;;3.80;;
68985;SDS011;56035;37.534;-122.308;2022-10-26T07:59:17;22.63;;;3.42;;
68985;SDS011;56035;37.534;-122.308;2022-10-26T08:01:43;20.85;;;3.90;;
68985;SDS011;56035;37.534;-122.308;2022-10-26T08:04:09;21.25;;;3.80;;
68985;SDS011;56035;37.534;-122.308;2022-10-26T08:06:35;25.00;;;4.20;;
68985;SDS011;56035;37.534;-122.308;2022-10-26T08:09:02;25.40;;;3.70;;
68985;SDS011;56035;37.534;-122.308;2022-10-26T08:11:28;25.20;;;3.35;;
68985;SDS011;56035;37.534;-122.308;2022-10-26T08:13:54;17.58;;;3.38;;
68985;SDS011;56035;37.534;-122.308;2022-10-26T08:16:21;24.45;;;4.13;;
68985;SDS011;56035;37.534;-122.308;2022-10-26T08:21:14;23.33;;;3.97;;
68985;SDS011;56035;37.534;-122.308;2022-10-26T08:23:40;25.77;;;3.63;;
68985;SDS011;56035;37.534;-122.308;2022-10-26T08:26:07;25.80;;;3.85;;
68985;SDS011;56035;37.534;-122.308;2022-10-26T08:28:36;27.87;;;4.30;;
68985;SDS011;56035;37.534;-122.308;2022-10-26T08:31:03;20.92;;;4.20;;
68985;SDS011;56035;37.534;-122.308;2022-10-26T08:33:29;22.90;;;3.58;;
68985;SDS011;56035;37.534;-122.308;2022-10-26T08:35:56;24.27;;;4.18;;
68985;SDS011;56035;37.534;-122.308;2022-10-26T08:38:24;30.73;;;4.83;;
68985;SDS011;56035;37.534;-122.308;2022-10-26T08:40:50;30.58;;;4.72;;
68985;SDS011;56035;37.534;-122.308;2022-10-26T08:43:25;27.67;;;4.85;;
68985;SDS011;56035;37.534;-122.308;2022-10-26T08:46:05;23.50;;;4.53;;
68985;SDS011;56035;37.534;-122.308;2022-10-26T08:48:42;24.67;;;4.80;;
68985;SDS011;56035;37.534;-122.308;2022-10-26T08:51:13;22.07;;;4.10;;
68985;SDS011;56035;37.534;-122.308;2022-10-26T08:56:25;21.88;;;3.88;;
68985;SDS011;56035;37.534;-122.308;2022-10-26T09:01:55;23.40;;;4.53;;
68985;SDS011;56035;37.534;-122.308;2022-10-26T09:04:23;29.15;;;4.32;;
68985;SDS011;56035;37.534;-122.308;2022-10-26T09:18:06;21.58;;;3.50;;
68985;SDS011;56035;37.534;-122.308;2022-10-26T09:21:06;22.30;;;4.13;;
68985;SDS011;56035;37.534;-122.308;2022-10-26T09:29:25;23.85;;;4.10;;
68985;SDS011;56035;37.534;-122.308;2022-10-26T09:31:59;24.70;;;3.70;;
68985;SDS011;56035;37.534;-122.308;2022-10-26T09:34:41;22.07;;;3.50;;
68985;SDS011;56035;37.534;-122.308;2022-10-26T09:37:51;25.43;;;5.30;;
68985;SDS011;56035;37.534;-122.308;2022-10-26T09:45:53;22.47;;;3.70;;
68985;SDS011;56035;37.534;-122.308;2022-10-26T09:48:30;22.65;;;3.58;;
68985;SDS011;56035;37.534;-122.308;2022-10-26T09:51:01;21.73;;;3.47;;
68985;SDS011;56035;37.534;-122.308;2022-10-26T09:53:27;24.75;;;4.43;;
68985;SDS011;56035;37.534;-122.308;2022-10-26T09:58:54;18.93;;;3.77;;
68985;SDS011;56035;37.534;-122.308;2022-10-26T10:06:38;17.97;;;3.67;;
68985;SDS011;56035;37.534;-122.308;2022-10-26T10:12:00;27.33;;;4.50;;
68985;SDS011;56035;37.534;-122.308;2022-10-26T10:14:31;20.80;;;4.17;;
68985;SDS011;56035;37.534;-122.308;2022-10-26T10:17:04;23.87;;;3.70;;
68985;SDS011;56035;37.534;-122.308;2022-10-26T10:19:35;22.30;;;3.30;;
68985;SDS011;56035;37.534;-122.308;2022-10-26T10:24:52;26.60;;;3.73;;
68985;SDS011;56035;37.534;-122.308;2022-10-26T10:27:22;21.67;;;4.13;;
68985;SDS011;56035;37.534;-122.308;2022-10-26T10:29:53;28.53;;;3.63;;
68985;SDS011;56035;37.534;-122.308;2022-10-26T10:32:24;26.20;;;4.00;;
68985;SDS011;56035;37.534;-122.308;2022-10-26T10:34:54;17.27;;;4.40;;
68985;SDS011;56035;37.534;-122.308;2022-10-26T10:39:55;23.20;;;4.00;;
68985;SDS011;56035;37.534;-122.308;2022-10-26T10:42:31;27.47;;;4.60;;
68985;SDS011;56035;37.534;-122.308;2022-10-26T10:45:00;22.40;;;3.50;;
68985;SDS011;56035;37.534;-122.308;2022-10-26T10:49:59;17.43;;;3.60;;
68985;SDS011;56035;37.534;-122.308;2022-10-26T10:52:28;19.53;;;3.23;;
68985;SDS011;56035;37.534;-122.308;2022-10-26T10:55:09;23.23;;;3.97;;
68985;SDS011;56035;37.534;-122.308;2022-10-26T10:57:59;20.90;;;3.80;;
68985;SDS011;56035;37.534;-122.308;2022-10-26T11:00:36;22.20;;;3.87;;
68985;SDS011;56035;37.534;-122.308;2022-10-26T11:11:14;19.03;;;3.57;;
68985;SDS011;56035;37.534;-122.308;2022-10-26T11:16:32;20.50;;;3.27;;
68985;SDS011;56035;37.534;-122.308;2022-10-26T11:21:52;20.47;;;3.83;;
68985;SDS011;56035;37.534;-122.308;2022-10-26T11:24:21;19.77;;;3.80;;
68985;SDS011;56035;37.534;-122.308;2022-10-26T11:27:32;17.90;;;3.43;;
68985;SDS011;56035;37.534;-122.308;2022-10-26T11:30:00;24.97;;;3.73;;
68985;SDS011;56035;37.534;-122.308;2022-10-26T11:35:51;23.07;;;3.30;;
68985;SDS011;56035;37.534;-122.308;2022-10-26T11:38:33;18.90;;;3.70;;
68985;SDS011;56035;37.534;-122.308;2022-10-26T11:57:02;19.63;;;3.07;;
68985;SDS011;56035;37.534;-122.308;2022-10-26T11:59:30;20.40;;;3.50;;
68985;SDS011;56035;37.534;-122.308;2022-10-26T12:02:23;15.03;;;3.27;;
68985;SDS011;56035;37.534;-122.308;2022-10-26T12:05:35;18.05;;;3.28;;
68985;SDS011;56035;37.534;-122.308;2022-10-26T12:07:57;19.10;;;2.73;;
68985;SDS011;56035;37.534;-122.308;2022-10-26T12:10:29;21.10;;;3.60;;
68985;SDS011;56035;37.534;-122.308;2022-10-26T12:18:43;25.57;;;3.60;;
68985;SDS011;56035;37.534;-122.308;2022-10-26T12:21:15;27.93;;;3.40;;
68985;SDS011;56035;37.534;-122.308;2022-10-26T12:23:58;20.53;;;3.80;;
68985;SDS011;56035;37.534;-122.308;2022-10-26T12:29:31;18.53;;;3.00;;
68985;SDS011;56035;37.534;-122.308;2022-10-26T12:43:32;18.30;;;4.00;;
68985;SDS011;56035;37.534;-122.308;2022-10-26T12:56:19;16.30;;;3.23;;
68985;SDS011;56035;37.534;-122.308;2022-10-26T12:59:00;22.67;;;4.13;;
68985;SDS011;56035;37.534;-122.308;2022-10-26T13:07:26;19.73;;;3.70;;
68985;SDS011;56035;37.534;-122.308;2022-10-26T13:10:03;22.97;;;4.27;;
68985;SDS011;56035;37.534;-122.308;2022-10-26T13:12:54;17.60;;;3.53;;
68985;SDS011;56035;37.534;-122.308;2022-10-26T13:18:26;20.77;;;3.20;;
68985;SDS011;56035;37.534;-122.308;2022-10-26T13:21:10;18.70;;;3.50;;
68985;SDS011;56035;37.534;-122.308;2022-10-26T13:23:45;16.17;;;3.37;;
68985;SDS011;56035;37.534;-122.308;2022-10-26T13:26:19;18.43;;;3.10;;
68985;SDS011;56035;37.534;-122.308;2022-10-26T13:28:49;24.10;;;4.13;;
68985;SDS011;56035;37.534;-122.308;2022-10-26T13:34:17;16.10;;;3.70;;
68985;SDS011;56035;37.534;-122.308;2022-10-26T13:37:03;16.00;;;3.40;;
68985;SDS011;56035;37.534;-122.308;2022-10-26T13:40:03;18.27;;;3.47;;
68985;SDS011;56035;37.534;-122.308;2022-10-26T13:42:38;23.70;;;3.87;;
68985;SDS011;56035;37.534;-122.308;2022-10-26T13:45:14;19.03;;;3.27;;
68985;SDS011;56035;37.534;-122.308;2022-10-26T13:48:03;19.77;;;3.40;;
68985;SDS011;56035;37.534;-122.308;2022-10-26T13:50:37;20.90;;;4.33;;
68985;SDS011;56035;37.534;-122.308;2022-10-26T13:55:59;20.10;;;3.80;;
68985;SDS011;56035;37.534;-122.308;2022-10-26T13:58:33;16.47;;;3.47;;
68985;SDS011;56035;37.534;-122.308;2022-10-26T14:01:20;24.47;;;3.50;;
68985;SDS011;56035;37.534;-122.308;2022-10-26T14:03:49;21.40;;;3.50;;
68985;SDS011;56035;37.534;-122.308;2022-10-26T14:06:37;17.10;;;3.05;;
68985;SDS011;56035;37.534;-122.308;2022-10-26T14:09:05;20.65;;;3.75;;
68985;SDS011;56035;37.534;-122.308;2022-10-26T14:11:51;23.77;;;3.83;;
68985;SDS011;56035;37.534;-122.308;2022-10-26T14:14:26;24.37;;;3.80;;
68985;SDS011;56035;37.534;-122.308;2022-10-26T14:16:58;15.43;;;3.23;;
68985;SDS011;56035;37.534;-122.308;2022-10-26T14:19:29;17.80;;;3.15;;
68985;SDS011;56035;37.534;-122.308;2022-10-26T14:21:58;20.80;;;3.80;;
68985;SDS011;56035;37.534;-122.308;2022-10-26T14:24:29;16.00;;;3.70;;
68985;SDS011;56035;37.534;-122.308;2022-10-26T14:26:59;19.50;;;3.47;;
68985;SDS011;56035;37.534;-122.308;2022-10-26T14:29:26;18.63;;;3.30;;
68985;SDS011;56035;37.534;-122.308;2022-10-26T14:31:56;20.00;;;3.60;;
68985;SDS011;56035;37.534;-122.308;2022-10-26T14:34:23;20.75;;;3.28;;
68985;SDS011;56035;37.534;-122.308;2022-10-26T14:36:53;14.80;;;2.83;;
68985;SDS011;56035;37.534;-122.308;2022-10-26T14:39:30;14.30;;;3.90;;
68985;SDS011;56035;37.534;-122.308;2022-10-26T14:44:46;14.73;;;3.23;;
68985;SDS011;56035;37.534;-122.308;2022-10-26T14:47:31;18.45;;;4.13;;
68985;SDS011;56035;37.534;-122.308;2022-10-26T14:50:00;23.50;;;4.13;;
68985;SDS011;56035;37.534;-122.308;2022-10-26T14:55:20;16.60;;;2.90;;
68985;SDS011;56035;37.534;-122.308;2022-10-26T14:57:47;16.60;;;3.47;;
68985;SDS011;56035;37.534;-122.308;2022-10-26T15:00:20;20.07;;;3.47;;
68985;SDS011;56035;37.534;-122.308;2022-10-26T15:02:49;18.40;;;3.37;;
68985;SDS011;56035;37.534;-122.308;2022-10-26T15:05:18;21.47;;;3.50;;
68985;SDS011;56035;37.534;-122.308;2022-10-26T15:07:48;20.33;;;3.43;;
68985;SDS011;56035;37.534;-122.308;2022-10-26T15:16:16;16.77;;;3.40;;
68985;SDS011;56035;37.534;-122.308;2022-10-26T15:18:43;12.40;;;2.70;;
68985;SDS011;56035;37.534;-122.308;2022-10-26T15:21:25;15.00;;;3.33;;
68985;SDS011;56035;37.534;-122.308;2022-10-26T15:23:51;13.63;;;3.43;;
68985;SDS011;56035;37.534;-122.308;2022-10-26T15:26:19;14.97;;;3.70;;
68985;SDS011;56035;37.534;-122.308;2022-10-26T15:28:45;13.93;;;2.78;;
68985;SDS011;56035;37.534;-122.308;2022-10-26T15:33:40;17.97;;;3.37;;
68985;SDS011;56035;37.534;-122.308;2022-10-26T15:36:28;17.45;;;3.60;;
68985;SDS011;56035;37.534;-122.308;2022-10-26T15:38:56;18.93;;;3.33;;
68985;SDS011;56035;37.534;-122.308;2022-10-26T15:41:28;17.63;;;3.50;;
68985;SDS011;56035;37.534;-122.308;2022-10-26T15:43:57;14.23;;;3.57;;
68985;SDS011;56035;37.534;-122.308;2022-10-26T15:46:29;15.33;;;3.20;;
68985;SDS011;56035;37.534;-122.308;2022-10-26T15:48:58;19.87;;;3.27;;
68985;SDS011;56035;37.534;-122.308;2022-10-26T15:51:26;19.03;;;3.77;;
68985;SDS011;56035;37.534;-122.308;2022-10-26T15:53:55;17.93;;;3.10;;
68985;SDS011;56035;37.534;-122.308;2022-10-26T15:56:23;12.20;;;2.60;;
68985;SDS011;56035;37.534;-122.308;2022-10-26T15:58:50;7.80;;;2.20;;
68985;SDS011;56035;37.534;-122.308;2022-10-26T16:01:19;5.33;;;1.90;;
68985;SDS011;56035;37.534;-122.308;2022-10-26T16:03:47;8.43;;;2.10;;
68985;SDS011;56035;37.534;-122.308;2022-10-26T16:08:59;8.00;;;1.93;;
68985;SDS011;56035;37.534;-122.308;2022-10-26T16:11:27;7.23;;;1.73;;
68985;SDS011;56035;37.534;-122.308;2022-10-26T16:13:54;10.57;;;2.17;;
68985;SDS011;56035;37.534;-122.308;2022-10-26T16:16:20;8.38;;;1.70;;
68985;SDS011;56035;37.534;-122.308;2022-10-26T16:18:48;13.05;;;2.40;;
68985;SDS011;56035;37.534;-122.308;2022-10-26T16:21:18;9.87;;;1.67;;
68985;SDS011;56035;37.534;-122.308;2022-10-26T16:23:46;5.40;;;1.60;;
68985;SDS011;56035;37.534;-122.308;2022-10-26T16:26:14;9.00;;;2.00;;
68985;SDS011;56035;37.534;-122.308;2022-10-26T16:28:40;11.65;;;2.05;;
68985;SDS011;56035;37.534;-122.308;2022-10-26T16:31:07;6.40;;;1.60;;
68985;SDS011;56035;37.534;-122.308;2022-10-26T16:33:36;7.07;;;1.60;;
68985;SDS011;56035;37.534;-122.308;2022-10-26T16:36:02;6.05;;;1.50;;
68985;SDS011;56035;37.534;-122.308;2022-10-26T16:38:30;7.60;;;1.67;;
68985;SDS011;56035;37.534;-122.308;2022-10-26T16:41:04;7.50;;;2.03;;
68985;SDS011;56035;37.534;-122.308;2022-10-26T16:43:31;6.30;;;1.50;;
68985;SDS011;56035;37.534;-122.308;2022-10-26T16:45:58;6.63;;;2.80;;
68985;SDS011;56035;37.534;-122.308;2022-10-26T16:48:24;6.20;;;1.60;;
68985;SDS011;56035;37.534;-122.308;2022-10-26T16:50:51;6.50;;;1.90;;
68985;SDS011;56035;37.534;-122.308;2022-10-26T16:53:17;10.13;;;2.80;;
68985;SDS011;56035;37.534;-122.308;2022-10-26T16:55:43;8.68;;;2.45;;
68985;SDS011;56035;37.534;-122.308;2022-10-26T16:58:10;10.57;;;2.47;;
68985;SDS011;56035;37.534;-122.308;2022-10-26T17:00:36;10.18;;;2.35;;
68985;SDS011;56035;37.534;-122.308;2022-10-26T17:03:02;7.57;;;2.03;;
68985;SDS011;56035;37.534;-122.308;2022-10-26T17:05:29;8.40;;;2.22;;
68985;SDS011;56035;37.534;-122.308;2022-10-26T17:07:55;9.07;;;2.63;;
68985;SDS011;56035;37.534;-122.308;2022-10-26T17:10:21;8.18;;;1.80;;
68985;SDS011;56035;37.534;-122.308;2022-10-26T17:12:47;6.28;;;1.80;;
68985;SDS011;56035;37.534;-122.308;2022-10-26T17:15:13;5.20;;;1.60;;
68985;SDS011;56035;37.534;-122.308;2022-10-26T17:17:39;8.32;;;2.03;;
68985;SDS011;56035;37.534;-122.308;2022-10-26T17:20:05;7.63;;;1.65;;
68985;SDS011;56035;37.534;-122.308;2022-10-26T17:24:58;5.88;;;1.52;;
68985;SDS011;56035;37.534;-122.308;2022-10-26T17:27:24;7.10;;;1.92;;
68985;SDS011;56035;37.534;-122.308;2022-10-26T17:29:50;6.55;;;1.90;;
68985;SDS011;56035;37.534;-122.308;2022-10-26T17:32:17;7.07;;;1.65;;
68985;SDS011;56035;37.534;-122.308;2022-10-26T17:34:43;7.20;;;1.75;;
68985;SDS011;56035;37.534;-122.308;2022-10-26T17:37:09;5.32;;;1.95;;
68985;SDS011;56035;37.534;-122.308;2022-10-26T17:39:35;6.25;;;1.85;;
68985;SDS011;56035;37.534;-122.308;2022-10-26T17:42:01;6.80;;;1.90;;